createdAt,value
2022-09-15T00:01:10.024Z,90.00
2022-09-15T00:03:37.013Z,89.90
2022-09-15T00:06:04.876Z,90.00
2022-09-15T00:08:32.184Z,89.80
2022-09-15T00:11:17.570Z,89.80
2022-09-15T00:13:45.153Z,89.70
2022-09-15T00:16:15.206Z,89.80
2022-09-15T00:18:43.723Z,89.70
2022-09-15T00:21:18.082Z,89.80
2022-09-15T00:23:46.135Z,89.80
2022-09-15T00:26:16.041Z,89.70
2022-09-15T00:28:43.946Z,89.70
2022-09-15T00:31:14.477Z,89.80
2022-09-15T00:33:41.940Z,89.90
2022-09-15T00:36:12.113Z,89.90
2022-09-15T00:38:41.948Z,89.90
2022-09-15T00:41:11.410Z,89.90
2022-09-15T00:43:56.728Z,90.10
2022-09-15T00:46:28.385Z,90.20
2022-09-15T00:49:07.175Z,90.20
2022-09-15T00:51:43.210Z,90.30
2022-09-15T00:54:16.186Z,90.70
2022-09-15T00:56:45.523Z,90.60
2022-09-15T00:59:17.024Z,90.50
2022-09-15T01:01:49.512Z,90.50
2022-09-15T01:04:18.602Z,90.50
2022-09-15T01:06:52.744Z,90.50
2022-09-15T01:09:25.573Z,90.50
2022-09-15T01:11:52.831Z,90.50
2022-09-15T01:14:19.822Z,90.50
2022-09-15T01:17:01.686Z,90.60
2022-09-15T01:19:44.147Z,90.60
2022-09-15T01:22:43.435Z,90.60
2022-09-15T01:25:27.723Z,90.60
2022-09-15T01:28:32.440Z,90.70
2022-09-15T01:31:13.939Z,90.70
2022-09-15T01:33:49.895Z,90.80
2022-09-15T01:36:42.957Z,90.80
2022-09-15T01:39:21.026Z,90.90
2022-09-15T01:41:55.901Z,90.90
2022-09-15T01:44:28.025Z,91.00
2022-09-15T01:46:58.393Z,90.90
2022-09-15T01:49:37.530Z,91.00
2022-09-15T01:52:05.755Z,91.20
2022-09-15T01:54:37.351Z,90.90
2022-09-15T01:57:04.588Z,90.90
2022-09-15T01:59:31.789Z,90.90
2022-09-15T02:02:14.573Z,90.90
2022-09-15T02:04:53.172Z,90.80
2022-09-15T02:07:57.766Z,90.80
2022-09-15T02:10:41.127Z,90.80
2022-09-15T02:13:19.091Z,90.80
2022-09-15T02:15:57.652Z,90.80
2022-09-15T02:18:44.149Z,90.80
2022-09-15T02:21:29.793Z,90.80
2022-09-15T02:24:03.576Z,90.80
2022-09-15T02:26:34.538Z,90.90
2022-09-15T02:29:07.770Z,90.90
2022-09-15T02:31:39.380Z,91.00
2022-09-15T02:34:26.656Z,91.10
2022-09-15T02:36:55.193Z,91.10
2022-09-15T02:39:27.970Z,91.20
2022-09-15T02:41:54.991Z,91.20
2022-09-15T02:44:23.399Z,91.20
2022-09-15T02:46:51.056Z,91.20
2022-09-15T02:49:20.872Z,91.20
2022-09-15T02:51:48.042Z,91.20
2022-09-15T02:54:15.016Z,91.10
2022-09-15T02:56:41.982Z,91.10
2022-09-15T02:59:09.003Z,91.10
2022-09-15T03:01:38.996Z,91.20
2022-09-15T03:04:06.511Z,91.10
2022-09-15T03:06:36.783Z,91.10
2022-09-15T03:09:08.193Z,91.10
2022-09-15T03:11:36.058Z,91.00
2022-09-15T03:14:05.844Z,91.10
2022-09-15T03:16:35.854Z,91.00
2022-09-15T03:19:04.055Z,91.00
2022-09-15T03:21:31.333Z,91.00
2022-09-15T03:23:59.491Z,91.00
2022-09-15T03:26:26.741Z,91.00
2022-09-15T03:28:53.779Z,91.20
2022-09-15T03:31:21.022Z,91.00
2022-09-15T03:33:50.703Z,91.00
2022-09-15T03:36:17.787Z,91.10
2022-09-15T03:38:45.087Z,91.10
2022-09-15T03:41:12.987Z,91.00
2022-09-15T03:43:40.169Z,91.00
2022-09-15T03:46:08.730Z,91.00
2022-09-15T03:48:36.836Z,90.90
2022-09-15T03:51:05.830Z,90.90
2022-09-15T03:53:34.438Z,90.90
2022-09-15T03:56:38.222Z,90.80
2022-09-15T03:59:05.827Z,90.80
2022-09-15T04:01:33.507Z,90.80
2022-09-15T04:04:00.828Z,90.70
2022-09-15T04:06:28.069Z,90.70
2022-09-15T04:08:55.746Z,90.70
2022-09-15T04:11:23.095Z,90.60
2022-09-15T04:13:50.465Z,90.60
2022-09-15T04:16:19.953Z,90.60
2022-09-15T04:18:47.044Z,90.60
2022-09-15T04:21:21.015Z,90.60
2022-09-15T04:23:48.648Z,90.60
2022-09-15T04:26:26.153Z,90.60
2022-09-15T04:28:53.350Z,90.60
2022-09-15T04:31:20.735Z,90.60
2022-09-15T04:33:47.849Z,90.60
2022-09-15T04:36:21.226Z,90.60
2022-09-15T04:38:49.225Z,90.60
2022-09-15T04:41:19.159Z,90.60
2022-09-15T04:43:46.427Z,90.60
2022-09-15T04:46:15.055Z,90.60
2022-09-15T04:48:42.812Z,90.60
2022-09-15T04:51:13.836Z,90.60
2022-09-15T04:53:41.721Z,90.60
2022-09-15T04:56:14.796Z,90.60
2022-09-15T04:58:50.820Z,90.60
2022-09-15T05:01:22.439Z,90.60
2022-09-15T05:03:49.909Z,90.60
2022-09-15T05:06:20.141Z,90.60
2022-09-15T05:08:51.466Z,90.60
2022-09-15T05:11:19.880Z,90.50
2022-09-15T05:13:48.066Z,90.50
2022-09-15T05:16:21.033Z,90.50
2022-09-15T05:18:50.188Z,90.40
2022-09-15T05:21:19.781Z,90.40
2022-09-15T05:23:48.063Z,90.40
2022-09-15T05:26:21.089Z,90.40
2022-09-15T05:28:48.125Z,90.50
2022-09-15T05:31:27.377Z,90.40
2022-09-15T05:33:54.726Z,90.40
2022-09-15T05:36:25.325Z,90.30
2022-09-15T05:38:56.784Z,90.20
2022-09-15T05:41:25.002Z,90.20
2022-09-15T05:43:53.609Z,90.20
2022-09-15T05:46:20.748Z,90.20
2022-09-15T05:48:47.833Z,90.10
2022-09-15T05:51:15.424Z,90.30
2022-09-15T05:53:42.944Z,90.00
2022-09-15T05:56:15.139Z,89.90
2022-09-15T05:58:45.179Z,89.90
2022-09-15T06:01:17.200Z,89.90
2022-09-15T06:03:45.037Z,89.80
2022-09-15T06:06:12.346Z,89.80
2022-09-15T06:08:47.989Z,89.70
2022-09-15T06:11:18.672Z,89.60
2022-09-15T06:13:46.741Z,89.60
2022-09-15T06:16:21.328Z,89.60
2022-09-15T06:18:53.592Z,89.50
2022-09-15T06:21:26.921Z,89.40
2022-09-15T06:24:01.864Z,89.30
2022-09-15T06:26:29.241Z,89.20
2022-09-15T06:28:58.979Z,89.20
2022-09-15T06:31:27.768Z,89.00
2022-09-15T06:33:57.695Z,88.80
2022-09-15T06:36:27.363Z,88.50
2022-09-15T06:38:55.041Z,88.30
2022-09-15T06:41:22.658Z,88.20
2022-09-15T06:43:49.907Z,87.90
2022-09-15T06:46:23.344Z,87.70
2022-09-15T06:48:53.635Z,87.50
2022-09-15T06:51:26.032Z,87.60
2022-09-15T06:53:53.578Z,87.50
2022-09-15T06:56:22.550Z,87.60
2022-09-15T06:58:50.205Z,87.60
2022-09-15T07:01:29.767Z,87.60
2022-09-15T07:03:58.536Z,87.50
2022-09-15T07:06:28.635Z,87.40
2022-09-15T07:08:57.386Z,88.00
2022-09-15T07:11:25.250Z,87.30
2022-09-15T07:13:52.774Z,87.10
2022-09-15T07:16:20.835Z,86.80
2022-09-15T07:18:48.903Z,86.70
2022-09-15T07:21:19.975Z,86.60
2022-09-15T07:23:47.873Z,86.50
2022-09-15T07:26:16.391Z,86.30
2022-09-15T07:28:46.841Z,86.10
2022-09-15T07:31:17.258Z,85.60
2022-09-15T07:33:45.054Z,85.30
2022-09-15T07:36:12.401Z,85.30
2022-09-15T07:38:42.288Z,85.00
2022-09-15T07:41:21.420Z,84.70
2022-09-15T07:43:49.797Z,84.50
2022-09-15T07:46:17.214Z,85.10
2022-09-15T07:48:51.228Z,84.20
2022-09-15T07:51:21.047Z,84.20
2022-09-15T07:53:48.850Z,84.00
2022-09-15T07:56:18.726Z,83.90
2022-09-15T07:58:49.683Z,83.40
2022-09-15T08:01:18.566Z,82.90
2022-09-15T08:03:49.178Z,82.50
2022-09-15T08:06:21.353Z,82.10
2022-09-15T08:08:59.310Z,81.80
2022-09-15T08:11:28.196Z,81.70
2022-09-15T08:13:55.243Z,81.70
2022-09-15T08:16:24.135Z,82.00
2022-09-15T08:18:53.649Z,81.80
2022-09-15T08:21:23.134Z,81.40
2022-09-15T08:23:57.781Z,81.50
2022-09-15T08:26:26.675Z,81.60
2022-09-15T08:28:53.888Z,81.50
2022-09-15T08:31:24.131Z,81.80
2022-09-15T08:33:53.960Z,81.70
2022-09-15T08:36:21.157Z,81.60
2022-09-15T08:38:51.209Z,81.40
2022-09-15T08:41:53.027Z,81.40
2022-09-15T08:44:33.553Z,81.10
2022-09-15T08:47:23.754Z,81.00
2022-09-15T08:49:58.630Z,80.80
2022-09-15T08:52:35.314Z,81.10
2022-09-15T08:55:14.488Z,80.30
2022-09-15T08:57:41.657Z,80.20
2022-09-15T09:00:15.530Z,80.30
2022-09-15T09:02:51.161Z,80.10
2022-09-15T09:05:44.288Z,79.90
2022-09-15T09:08:25.431Z,79.60
2022-09-15T09:11:00.177Z,79.30
2022-09-15T09:14:03.709Z,78.30
2022-09-15T09:16:39.456Z,78.10
2022-09-15T09:19:42.120Z,77.60
2022-09-15T09:22:20.506Z,77.00
2022-09-15T09:24:53.799Z,77.20
2022-09-15T09:27:25.320Z,76.80
2022-09-15T09:30:16.557Z,76.40
2022-09-15T09:32:54.396Z,76.50
2022-09-15T09:35:53.806Z,76.60
2022-09-15T09:38:26.188Z,75.20
2022-09-15T09:40:53.324Z,75.10
2022-09-15T09:43:20.784Z,74.00
2022-09-15T09:45:47.867Z,74.40
2022-09-15T09:48:21.433Z,74.20
2022-09-15T09:50:51.369Z,74.20
2022-09-15T09:53:24.683Z,74.00
2022-09-15T09:55:53.384Z,74.10
2022-09-15T09:58:23.402Z,73.20
2022-09-15T10:00:52.234Z,72.50
2022-09-15T10:03:22.779Z,72.40
2022-09-15T10:06:20.756Z,72.60
2022-09-15T10:09:08.921Z,72.90
2022-09-15T10:11:48.874Z,73.00
2022-09-15T10:14:36.532Z,72.80
2022-09-15T10:17:09.333Z,72.30
2022-09-15T10:19:52.720Z,72.50
2022-09-15T10:22:31.553Z,72.80
2022-09-15T10:25:00.497Z,72.90
2022-09-15T10:27:31.147Z,73.20
2022-09-15T10:30:13.615Z,73.50
2022-09-15T10:32:41.459Z,73.40
2022-09-15T10:35:14.505Z,73.90
2022-09-15T10:38:00.315Z,74.40
2022-09-15T10:40:51.630Z,74.70
2022-09-15T10:44:07.055Z,75.50
2022-09-15T10:46:41.855Z,77.50
2022-09-15T10:49:33.433Z,78.70
2022-09-15T10:52:30.922Z,79.00
2022-09-15T10:55:06.803Z,79.20
2022-09-15T10:57:42.769Z,79.20
2022-09-15T11:00:31.479Z,78.60
2022-09-15T11:03:01.495Z,78.10
2022-09-15T11:05:40.755Z,77.70
2022-09-15T11:08:41.172Z,77.00
2022-09-15T11:11:26.135Z,76.40
2022-09-15T11:14:07.514Z,75.80
2022-09-15T11:16:41.825Z,75.00
2022-09-15T11:19:49.940Z,74.70
2022-09-15T11:22:21.966Z,74.60
2022-09-15T11:24:59.022Z,74.30
2022-09-15T11:27:41.305Z,74.20
2022-09-15T11:30:16.530Z,74.00
2022-09-15T11:33:01.993Z,73.70
2022-09-15T11:35:42.143Z,73.30
2022-09-15T11:38:21.474Z,72.20
2022-09-15T11:40:54.847Z,71.60
2022-09-15T11:43:32.356Z,71.00
2022-09-15T11:46:01.708Z,71.00
2022-09-15T11:48:44.045Z,70.50
2022-09-15T11:51:15.542Z,69.60
2022-09-15T11:53:58.697Z,69.80
2022-09-15T11:56:41.021Z,69.30
2022-09-15T11:59:22.986Z,69.20
2022-09-15T12:02:02.146Z,69.10
2022-09-15T12:04:33.397Z,67.90
2022-09-15T12:07:11.036Z,68.30
2022-09-15T12:09:40.966Z,67.80
2022-09-15T12:12:16.900Z,67.10
2022-09-15T12:14:49.209Z,67.10
2022-09-15T12:17:35.536Z,67.30
2022-09-15T12:20:12.750Z,66.10
2022-09-15T12:23:04.778Z,66.00
2022-09-15T12:25:44.219Z,65.90
2022-09-15T12:28:23.866Z,66.40
2022-09-15T12:31:12.603Z,65.20
2022-09-15T12:33:42.736Z,64.40
2022-09-15T12:36:34.663Z,63.20
2022-09-15T12:39:03.757Z,63.80
2022-09-15T12:41:34.055Z,64.00
2022-09-15T12:44:17.884Z,64.70
2022-09-15T12:46:53.063Z,64.80
2022-09-15T12:49:27.902Z,64.80
2022-09-15T12:51:55.426Z,65.30
2022-09-15T12:54:35.783Z,65.00
2022-09-15T12:57:03.533Z,65.30
2022-09-15T12:59:30.766Z,65.10
2022-09-15T13:02:00.338Z,65.10
2022-09-15T13:04:43.659Z,64.20
2022-09-15T13:07:19.145Z,63.80
2022-09-15T13:09:59.991Z,63.90
2022-09-15T13:12:32.982Z,64.00
2022-09-15T13:15:13.133Z,63.40
2022-09-15T13:17:47.091Z,63.20
2022-09-15T13:20:29.857Z,61.30
2022-09-15T13:23:02.220Z,61.20
2022-09-15T13:25:30.023Z,61.10
2022-09-15T13:28:02.919Z,59.80
2022-09-15T13:31:16.371Z,60.40
2022-09-15T13:40:55.122Z,61.20
2022-09-15T13:43:40.758Z,61.90
2022-09-15T13:46:17.618Z,61.80
2022-09-15T13:49:15.597Z,62.50
2022-09-15T13:51:53.307Z,62.70
2022-09-15T13:54:20.551Z,63.00
2022-09-15T13:56:49.163Z,63.30
2022-09-15T13:59:30.462Z,63.20
2022-09-15T14:02:00.431Z,63.40
2022-09-15T14:04:31.054Z,62.90
2022-09-15T14:07:01.352Z,63.30
2022-09-15T14:09:33.385Z,63.50
2022-09-15T14:12:10.401Z,63.50
2022-09-15T14:14:47.955Z,63.30
2022-09-15T14:17:24.050Z,63.00
2022-09-15T14:19:56.957Z,63.10
2022-09-15T14:22:28.742Z,62.70
2022-09-15T14:25:00.755Z,62.50
2022-09-15T14:27:33.403Z,61.90
2022-09-15T14:30:29.200Z,61.50
2022-09-15T14:33:04.285Z,61.60
2022-09-15T14:35:39.330Z,61.20
2022-09-15T14:38:06.519Z,59.90
2022-09-15T14:40:39.208Z,60.20
2022-09-15T14:43:26.885Z,60.70
2022-09-15T14:46:01.211Z,60.90
2022-09-15T14:48:31.967Z,61.10
2022-09-15T14:51:04.958Z,61.10
2022-09-15T14:53:35.557Z,61.10
2022-09-15T14:56:09.932Z,61.20
2022-09-15T14:58:45.289Z,61.40
2022-09-15T15:01:40.712Z,61.70
2022-09-15T15:04:11.156Z,61.50
2022-09-15T15:07:19.676Z,60.90
2022-09-15T15:10:02.099Z,61.40
2022-09-15T15:12:40.096Z,61.90
2022-09-15T15:15:10.815Z,62.00
2022-09-15T15:17:43.209Z,62.00
2022-09-15T15:20:10.313Z,62.10
2022-09-15T15:22:38.805Z,61.90
2022-09-15T15:25:24.563Z,61.40
2022-09-15T15:27:54.127Z,61.20
2022-09-15T15:30:30.926Z,60.70
2022-09-15T15:33:19.302Z,60.40
2022-09-15T15:36:09.710Z,60.30
2022-09-15T15:38:50.921Z,60.30
2022-09-15T15:41:27.865Z,59.60
2022-09-15T15:43:58.647Z,60.70
2022-09-15T15:46:50.479Z,59.70
2022-09-15T15:49:22.032Z,60.10
2022-09-15T15:51:50.380Z,60.40
2022-09-15T15:54:17.438Z,60.30
2022-09-15T15:56:48.881Z,60.90
2022-09-15T15:59:16.517Z,61.50
2022-09-15T16:01:43.696Z,61.20
2022-09-15T16:04:12.816Z,61.60
2022-09-15T16:06:40.127Z,61.90
2022-09-15T16:09:07.265Z,61.20
2022-09-15T16:11:34.466Z,61.40
2022-09-15T16:14:01.383Z,61.50
2022-09-15T16:16:29.441Z,61.40
2022-09-15T16:18:56.474Z,61.10
2022-09-15T16:21:39.700Z,61.10
2022-09-15T16:24:14.242Z,61.20
2022-09-15T16:26:42.865Z,61.60
2022-09-15T16:29:10.416Z,61.80
2022-09-15T16:31:38.432Z,62.10
2022-09-15T16:34:17.838Z,62.40
2022-09-15T16:36:45.133Z,62.70
2022-09-15T16:39:12.413Z,62.80
2022-09-15T16:41:40.538Z,63.00
2022-09-15T16:44:18.967Z,63.30
2022-09-15T16:46:46.238Z,63.20
2022-09-15T16:49:13.379Z,63.40
2022-09-15T16:51:40.359Z,63.30
2022-09-15T16:54:20.260Z,63.40
2022-09-15T16:56:47.440Z,63.40
2022-09-15T16:59:14.899Z,63.50
2022-09-15T17:01:42.110Z,63.70
2022-09-15T17:04:18.521Z,63.90
2022-09-15T17:06:45.790Z,63.80
2022-09-15T17:09:12.808Z,64.10
2022-09-15T17:11:39.909Z,64.10
2022-09-15T17:14:08.739Z,64.10
2022-09-15T17:16:35.775Z,64.30
2022-09-15T17:19:04.092Z,64.40
2022-09-15T17:21:31.811Z,64.30
2022-09-15T17:23:58.913Z,64.40
2022-09-15T17:26:31.044Z,64.50
2022-09-15T17:28:58.881Z,64.50
2022-09-15T17:31:26.417Z,64.70
2022-09-15T17:33:53.580Z,64.80
2022-09-15T17:36:20.683Z,65.00
2022-09-15T17:38:49.138Z,65.30
2022-09-15T17:41:18.921Z,65.60
2022-09-15T17:43:46.807Z,66.00
2022-09-15T17:46:13.976Z,66.90
2022-09-15T17:48:41.176Z,66.60
2022-09-15T17:51:13.075Z,66.90
2022-09-15T17:53:40.427Z,67.10
2022-09-15T17:56:07.307Z,67.50
2022-09-15T17:58:34.615Z,67.80
2022-09-15T18:01:03.278Z,68.00
2022-09-15T18:03:36.817Z,68.20
2022-09-15T18:06:07.174Z,68.40
2022-09-15T18:08:36.176Z,68.50
2022-09-15T18:11:05.209Z,68.80
2022-09-15T18:16:23.453Z,69.20
2022-09-15T18:18:56.731Z,69.40
2022-09-15T18:21:28.010Z,69.50
2022-09-15T18:23:56.157Z,69.70
2022-09-15T18:26:26.291Z,69.90
2022-09-15T18:28:57.010Z,70.00
2022-09-15T18:31:24.426Z,70.30
2022-09-15T18:33:51.516Z,70.40
2022-09-15T18:36:21.411Z,70.60
2022-09-15T18:38:51.044Z,70.90
2022-09-15T18:41:18.642Z,71.10
2022-09-15T18:43:49.192Z,71.20
2022-09-15T18:46:17.669Z,71.40
2022-09-15T18:48:44.883Z,71.50
2022-09-15T18:51:19.369Z,71.70
2022-09-15T18:53:53.994Z,72.00
2022-09-15T18:56:21.633Z,72.10
2022-09-15T18:58:52.102Z,72.20
2022-09-15T19:01:19.373Z,72.30
2022-09-15T19:03:46.606Z,72.50
2022-09-15T19:06:13.933Z,72.60
2022-09-15T19:08:41.017Z,72.70
2022-09-15T19:11:08.129Z,73.00
2022-09-15T19:13:35.832Z,73.20
2022-09-15T19:16:04.934Z,73.00
2022-09-15T19:18:32.949Z,73.00
2022-09-15T19:21:12.440Z,73.00
2022-09-15T19:24:41.084Z,72.90
2022-09-15T19:27:26.044Z,72.90
2022-09-15T19:30:00.830Z,73.70
2022-09-15T19:32:28.278Z,74.10
2022-09-15T19:34:55.373Z,74.30
2022-09-15T19:37:22.876Z,74.70
2022-09-15T19:39:52.728Z,74.90
2022-09-15T19:42:19.953Z,75.20
2022-09-15T19:44:48.046Z,75.10
2022-09-15T19:47:17.513Z,75.20
2022-09-15T19:49:48.480Z,75.70
2022-09-15T19:52:24.681Z,75.70
2022-09-15T19:54:52.054Z,75.80
2022-09-15T19:57:21.150Z,76.00
2022-09-15T19:59:51.700Z,76.10
2022-09-15T20:02:22.434Z,76.40
2022-09-15T20:04:50.601Z,76.30
2022-09-15T20:07:17.654Z,76.50
2022-09-15T20:09:44.959Z,77.20
2022-09-15T20:12:12.197Z,76.60
2022-09-15T20:14:39.351Z,76.60
2022-09-15T20:17:06.401Z,76.50
2022-09-15T20:19:36.264Z,76.60
2022-09-15T20:22:03.593Z,76.60
2022-09-15T20:24:31.267Z,76.60
2022-09-15T20:26:59.407Z,76.60
2022-09-15T20:29:26.383Z,76.80
2022-09-15T20:31:56.075Z,76.90
2022-09-15T20:34:23.130Z,77.10
2022-09-15T20:36:50.112Z,77.30
2022-09-15T20:39:22.289Z,77.50
2022-09-15T20:41:49.283Z,77.60
2022-09-15T20:44:16.932Z,77.70
2022-09-15T20:46:46.192Z,77.80
2022-09-15T20:49:13.283Z,78.10
2022-09-15T20:51:40.428Z,78.30
2022-09-15T20:54:07.350Z,78.30
2022-09-15T20:56:35.554Z,78.30
2022-09-15T20:59:04.589Z,78.40
2022-09-15T21:01:37.462Z,78.40
2022-09-15T21:04:06.552Z,78.50
2022-09-15T21:06:34.141Z,78.50
2022-09-15T21:09:01.104Z,78.50
2022-09-15T21:11:31.496Z,78.70
2022-09-15T21:14:06.012Z,78.80
2022-09-15T21:16:34.952Z,79.10
2022-09-15T21:19:02.274Z,79.00
2022-09-15T21:21:32.525Z,79.10
2022-09-15T21:24:03.756Z,79.10
2022-09-15T21:27:00.508Z,79.30
2022-09-15T21:29:28.576Z,79.30
2022-09-15T21:31:56.049Z,79.70
2022-09-15T21:34:24.054Z,79.90
2022-09-15T21:36:53.595Z,79.90
2022-09-15T21:39:21.517Z,79.90
2022-09-15T21:41:51.398Z,80.10
2022-09-15T21:44:21.532Z,80.10
2022-09-15T21:46:52.733Z,80.20
2022-09-15T21:49:20.271Z,80.30
2022-09-15T21:51:47.600Z,80.50
2022-09-15T21:54:15.013Z,80.60
2022-09-15T21:56:42.165Z,80.80
2022-09-15T21:59:10.830Z,81.60
2022-09-15T22:01:39.381Z,81.00
2022-09-15T22:04:08.368Z,81.30
2022-09-15T22:06:40.324Z,81.60
2022-09-15T22:09:14.527Z,81.80
2022-09-15T22:11:42.158Z,81.90
2022-09-15T22:14:09.951Z,82.00
2022-09-15T22:16:38.718Z,82.20
2022-09-15T22:19:07.347Z,82.60
2022-09-15T22:21:37.122Z,82.70
2022-09-15T22:24:06.953Z,82.60
2022-09-15T22:26:36.871Z,82.70
2022-09-15T22:29:06.429Z,83.00
2022-09-15T22:31:34.441Z,83.60
2022-09-15T22:34:01.886Z,83.70
2022-09-15T22:36:30.571Z,83.80
2022-09-15T22:39:05.248Z,83.90
2022-09-15T22:41:35.385Z,84.30
2022-09-15T22:44:03.289Z,84.40
2022-09-15T22:46:30.497Z,84.30
2022-09-15T22:48:58.044Z,84.40
2022-09-15T22:51:25.242Z,84.70
2022-09-15T22:53:56.739Z,84.80
2022-09-15T22:56:26.056Z,84.70
2022-09-15T22:58:53.347Z,84.90
2022-09-15T23:01:22.694Z,85.00
2022-09-15T23:04:10.035Z,85.30
2022-09-15T23:06:37.083Z,85.10
2022-09-15T23:09:09.449Z,85.10
2022-09-15T23:11:39.772Z,85.10
2022-09-15T23:14:12.129Z,85.10
2022-09-15T23:16:39.222Z,85.00
2022-09-15T23:19:06.873Z,85.00
2022-09-15T23:21:34.272Z,85.00
2022-09-15T23:24:02.051Z,84.90
2022-09-15T23:26:29.067Z,84.80
2022-09-15T23:28:56.276Z,84.80
2022-09-15T23:31:23.520Z,84.80
2022-09-15T23:33:50.644Z,84.90
2022-09-15T23:36:22.029Z,85.00
2022-09-15T23:38:49.905Z,85.10
2022-09-15T23:41:20.623Z,85.10
2022-09-15T23:43:47.867Z,85.30
2022-09-15T23:46:15.358Z,85.50
2022-09-15T23:48:42.442Z,85.60
2022-09-15T23:51:09.767Z,86.20
2022-09-15T23:53:36.935Z,85.70
2022-09-15T23:56:04.276Z,85.80
2022-09-15T23:58:31.624Z,85.80
